Time;durP1;ratioP1;P1;durP2;ratioP2;P2;SDS_P1;SDS_P2;PMS_P1;PMS_P2;Temp;Humidity;BMP_temperature;BMP_pressure;BME280_temperature;BME280_humidity;BME280_pressure;Samples;Min_cycle;Max_cycle;Signal;HPM_P1;HPM_P2
2023/12/01 00:00:39;;;;;;;;;;;3.30;99.90;;;;;;5101573;28;20011;-69
2023/12/01 00:03:05;;;;;;;;;;;3.30;99.90;;;;;;5104078;28;19915;-68
2023/12/01 00:05:30;;;;;;;;;;;3.30;99.90;;;;;;5106785;28;20745;-68
2023/12/01 00:07:58;;;;;;;;;;;3.30;99.90;;;;;;5106558;28;20428;-68
2023/12/01 00:10:23;;;;;;;;;;;3.30;99.90;;;;;;5107091;28;20485;-68
2023/12/01 00:12:49;;;;;;;;;;;3.30;99.90;;;;;;5092323;28;19915;-68
2023/12/01 00:15:14;;;;;;;;;;;3.30;99.90;;;;;;5099942;28;19912;-69
2023/12/01 00:17:40;;;;;;;;;;;3.30;99.90;;;;;;5104396;28;20019;-69
2023/12/01 00:20:06;;;;;;;;;;;3.30;99.90;;;;;;5106732;28;19965;-69
2023/12/01 00:22:32;;;;;;;;;;;3.30;99.90;;;;;;5087849;28;19969;-68
2023/12/01 00:24:57;;;;;;;;;;;3.30;99.90;;;;;;5092553;28;19916;-68
2023/12/01 00:27:23;;;;;;;;;;;3.30;99.90;;;;;;5104142;28;19911;-68
2023/12/01 00:29:48;;;;;;;;;;;3.30;99.90;;;;;;5100754;28;20001;-68
2023/12/01 00:32:14;;;;;;;;;;;3.30;99.90;;;;;;5106239;28;19922;-68
2023/12/01 00:34:40;;;;;;;;;;;3.30;99.90;;;;;;5105837;28;19908;-68
2023/12/01 00:37:30;;;;;;;;;;;3.30;99.90;;;;;;5097708;28;19955;-68
2023/12/01 00:39:56;;;;;;;;;;;3.30;99.90;;;;;;5072069;28;20588;-68
2023/12/01 00:42:21;;;;;;;;;;;3.30;99.90;;;;;;5097574;28;19915;-68
2023/12/01 00:44:47;;;;;;;;;;;3.30;99.90;;;;;;5098146;28;19999;-68
2023/12/01 00:47:13;;;;;;;;;;;3.30;99.90;;;;;;5105529;28;20006;-68
2023/12/01 00:49:38;;;;;;;;;;;3.30;99.90;;;;;;5105294;28;20563;-68
2023/12/01 00:52:04;;;;;;;;;;;3.30;99.90;;;;;;5106060;28;19912;-68
2023/12/01 00:54:29;;;;;;;;;;;3.30;99.90;;;;;;5105455;28;19908;-68
2023/12/01 00:56:55;;;;;;;;;;;3.30;99.90;;;;;;5102209;28;19972;-68
2023/12/01 00:59:20;;;;;;;;;;;3.30;99.90;;;;;;5090546;28;19920;-69
2023/12/01 01:01:47;;;;;;;;;;;3.30;99.90;;;;;;5104688;28;20369;-68
2023/12/01 01:04:13;;;;;;;;;;;3.30;99.90;;;;;;5105784;28;20046;-69
2023/12/01 01:06:38;;;;;;;;;;;3.30;99.90;;;;;;5086876;28;20400;-68
2023/12/01 01:09:04;;;;;;;;;;;3.30;99.90;;;;;;5089341;28;20257;-68
2023/12/01 01:11:29;;;;;;;;;;;3.30;99.90;;;;;;5078684;28;19998;-68
2023/12/01 01:13:55;;;;;;;;;;;3.30;99.90;;;;;;5105671;28;20335;-68
2023/12/01 01:16:22;;;;;;;;;;;3.30;99.90;;;;;;5087294;28;20002;-68
2023/12/01 01:18:47;;;;;;;;;;;3.30;99.90;;;;;;5076018;28;20067;-68
2023/12/01 01:21:13;;;;;;;;;;;3.30;99.90;;;;;;5100066;28;19916;-69
2023/12/01 01:23:38;;;;;;;;;;;3.30;99.90;;;;;;5105674;28;20512;-68
2023/12/01 01:26:04;;;;;;;;;;;3.20;99.90;;;;;;5100655;28;19908;-68
2023/12/01 01:28:29;;;;;;;;;;;3.30;99.90;;;;;;5099016;28;20531;-68
2023/12/01 01:30:57;;;;;;;;;;;3.30;99.90;;;;;;5100644;28;19924;-68
2023/12/01 01:33:23;;;;;;;;;;;3.20;99.90;;;;;;5105463;28;19920;-69
2023/12/01 01:35:48;;;;;;;;;;;3.30;99.90;;;;;;5104928;28;19988;-68
2023/12/01 01:38:14;;;;;;;;;;;3.30;99.90;;;;;;5091175;28;19916;-68
2023/12/01 01:40:39;;;;;;;;;;;3.30;99.90;;;;;;5103300;28;19908;-68
2023/12/01 01:43:05;;;;;;;;;;;3.30;99.90;;;;;;5086939;28;19990;-68
2023/12/01 01:45:30;;;;;;;;;;;3.30;99.90;;;;;;5104916;28;19911;-68
2023/12/01 01:47:57;;;;;;;;;;;3.30;99.90;;;;;;5098947;28;19923;-68
2023/12/01 01:50:22;;;;;;;;;;;3.30;99.90;;;;;;5093911;28;19958;-68
2023/12/01 01:52:48;;;;;;;;;;;3.20;99.90;;;;;;5108617;28;19923;-68
2023/12/01 01:55:14;;;;;;;;;;;3.30;99.90;;;;;;5107325;28;19908;-68
2023/12/01 01:57:42;;;;;;;;;;;3.30;99.90;;;;;;5102061;28;19939;-68
2023/12/01 02:00:08;;;;;;;;;;;3.30;99.90;;;;;;5086278;28;20367;-68
2023/12/01 02:02:35;;;;;;;;;;;3.30;99.90;;;;;;5092882;28;19919;-68
2023/12/01 02:05:01;;;;;;;;;;;3.30;99.90;;;;;;5108854;28;19968;-68
2023/12/01 02:07:27;;;;;;;;;;;3.30;99.90;;;;;;5082646;28;19973;-68
2023/12/01 02:09:55;;;;;;;;;;;3.20;99.90;;;;;;5109021;28;19946;-69
2023/12/01 02:12:21;;;;;;;;;;;3.30;99.90;;;;;;5109340;28;20728;-68
2023/12/01 02:14:46;;;;;;;;;;;3.30;99.90;;;;;;5091999;28;19995;-68
2023/12/01 02:17:12;;;;;;;;;;;3.30;99.90;;;;;;5109266;28;19912;-68
2023/12/01 02:19:38;;;;;;;;;;;3.30;99.90;;;;;;5081413;28;19913;-69
2023/12/01 02:22:05;;;;;;;;;;;3.20;99.90;;;;;;5086501;28;19912;-68
2023/12/01 02:24:31;;;;;;;;;;;3.30;99.90;;;;;;5108450;28;19912;-68
2023/12/01 02:26:56;;;;;;;;;;;3.20;99.90;;;;;;5105634;28;19916;-69
2023/12/01 02:29:22;;;;;;;;;;;3.30;99.90;;;;;;5100048;28;20003;-68
2023/12/01 02:31:47;;;;;;;;;;;3.30;99.90;;;;;;5105607;28;19935;-68
2023/12/01 02:34:13;;;;;;;;;;;3.30;99.90;;;;;;5096701;28;19959;-68
2023/12/01 02:36:38;;;;;;;;;;;3.30;99.90;;;;;;5106153;28;19912;-69
2023/12/01 02:39:04;;;;;;;;;;;3.30;99.90;;;;;;5105383;28;19911;-68
2023/12/01 02:41:29;;;;;;;;;;;3.20;99.90;;;;;;5108806;28;19930;-69
2023/12/01 02:43:55;;;;;;;;;;;3.30;99.90;;;;;;5096550;28;20311;-68
2023/12/01 02:46:22;;;;;;;;;;;3.30;99.90;;;;;;5096466;28;19912;-69
2023/12/01 02:48:49;;;;;;;;;;;3.20;99.90;;;;;;5098705;28;19912;-69
2023/12/01 02:51:14;;;;;;;;;;;3.20;99.90;;;;;;5108542;28;19931;-68
2023/12/01 02:53:40;;;;;;;;;;;3.30;99.90;;;;;;5099741;28;19919;-68
2023/12/01 02:56:05;;;;;;;;;;;3.30;99.80;;;;;;5104683;28;20014;-69
2023/12/01 02:58:31;;;;;;;;;;;3.20;99.80;;;;;;5104139;28;19918;-68
2023/12/01 03:00:57;;;;;;;;;;;3.20;99.80;;;;;;5099135;28;19919;-68
2023/12/01 03:03:22;;;;;;;;;;;3.30;99.90;;;;;;5103757;28;20296;-68
2023/12/01 03:05:48;;;;;;;;;;;3.30;99.90;;;;;;5106541;28;19920;-68
2023/12/01 03:08:14;;;;;;;;;;;3.20;99.90;;;;;;5108467;28;20361;-68
2023/12/01 03:10:39;;;;;;;;;;;3.20;99.90;;;;;;5099440;28;20377;-68
2023/12/01 03:13:05;;;;;;;;;;;3.20;99.90;;;;;;5099714;28;19923;-68
2023/12/01 03:15:30;;;;;;;;;;;3.30;99.90;;;;;;5107823;28;19921;-68
2023/12/01 03:17:56;;;;;;;;;;;3.20;99.80;;;;;;5087718;28;19912;-68
2023/12/01 03:20:22;;;;;;;;;;;3.30;99.80;;;;;;5094931;28;19934;-68
2023/12/01 03:22:50;;;;;;;;;;;3.20;99.90;;;;;;5098987;28;20395;-69
2023/12/01 03:25:16;;;;;;;;;;;3.20;99.90;;;;;;5107693;28;20602;-68
2023/12/01 03:27:42;;;;;;;;;;;3.20;99.80;;;;;;5102364;28;19927;-68
2023/12/01 03:30:14;;;;;;;;;;;3.30;99.80;;;;;;5090682;28;19969;-69
2023/12/01 03:32:50;;;;;;;;;;;3.20;99.80;;;;;;5105407;28;19969;-69
2023/12/01 03:35:16;;;;;;;;;;;3.20;99.90;;;;;;5107680;28;20008;-68
2023/12/01 03:37:43;;;;;;;;;;;3.20;99.80;;;;;;5107404;28;19938;-69
2023/12/01 03:40:12;;;;;;;;;;;3.20;99.90;;;;;;5084139;28;19916;-68
2023/12/01 03:42:39;;;;;;;;;;;3.20;99.80;;;;;;5096285;28;19912;-69
2023/12/01 03:45:06;;;;;;;;;;;3.20;99.90;;;;;;5088909;28;20331;-69
2023/12/01 03:47:33;;;;;;;;;;;3.20;99.90;;;;;;5107043;28;19942;-69
2023/12/01 03:49:58;;;;;;;;;;;3.20;99.90;;;;;;5107558;28;19913;-68
2023/12/01 03:52:24;;;;;;;;;;;3.20;99.80;;;;;;5099051;28;19912;-68
2023/12/01 03:54:49;;;;;;;;;;;3.20;99.80;;;;;;5098271;28;19915;-69
2023/12/01 03:57:15;;;;;;;;;;;3.20;99.80;;;;;;5102614;28;19922;-68
2023/12/01 03:59:40;;;;;;;;;;;3.20;99.80;;;;;;5091101;28;19930;-68
2023/12/01 04:02:06;;;;;;;;;;;3.20;99.80;;;;;;5107383;28;20261;-69
2023/12/01 04:04:31;;;;;;;;;;;3.20;99.80;;;;;;5088872;28;19919;-68
2023/12/01 04:06:57;;;;;;;;;;;3.20;99.80;;;;;;5081785;28;19919;-68
2023/12/01 04:09:22;;;;;;;;;;;3.20;99.90;;;;;;5107258;28;20018;-68
2023/12/01 04:11:48;;;;;;;;;;;3.20;99.80;;;;;;5106215;28;19918;-68
2023/12/01 04:14:13;;;;;;;;;;;3.20;99.90;;;;;;5098367;28;19999;-68
2023/12/01 04:16:39;;;;;;;;;;;3.30;99.80;;;;;;5097843;28;19915;-68
2023/12/01 04:19:04;;;;;;;;;;;3.30;99.80;;;;;;5086622;28;19943;-68
2023/12/01 04:21:30;;;;;;;;;;;3.20;99.70;;;;;;5103133;28;19916;-69
2023/12/01 04:23:56;;;;;;;;;;;3.20;99.80;;;;;;5098303;28;20057;-68
2023/12/01 04:26:21;;;;;;;;;;;3.20;99.80;;;;;;5106650;28;19912;-69
2023/12/01 04:28:46;;;;;;;;;;;3.20;99.80;;;;;;5079346;28;20457;-68
2023/12/01 04:31:12;;;;;;;;;;;3.20;99.80;;;;;;5099470;28;19912;-68
2023/12/01 04:33:37;;;;;;;;;;;3.20;99.90;;;;;;5079223;28;19923;-68
2023/12/01 04:36:06;;;;;;;;;;;3.20;99.80;;;;;;5106274;28;19934;-68
2023/12/01 04:38:35;;;;;;;;;;;3.20;99.80;;;;;;5086357;28;19958;-68
2023/12/01 04:41:01;;;;;;;;;;;3.20;99.80;;;;;;5087142;28;19912;-69
2023/12/01 04:43:28;;;;;;;;;;;3.20;99.80;;;;;;5093716;28;19919;-68
2023/12/01 04:45:53;;;;;;;;;;;3.20;99.70;;;;;;5097270;28;19920;-68
2023/12/01 04:48:19;;;;;;;;;;;3.20;99.70;;;;;;5099500;28;19961;-68
2023/12/01 04:50:48;;;;;;;;;;;3.20;99.90;;;;;;5102266;28;20011;-68
2023/12/01 04:53:14;;;;;;;;;;;3.20;99.80;;;;;;5091720;28;20452;-68
2023/12/01 04:55:40;;;;;;;;;;;3.20;99.80;;;;;;5092465;28;19919;-69
2023/12/01 04:58:05;;;;;;;;;;;3.20;99.80;;;;;;5090429;28;20376;-68
2023/12/01 05:00:31;;;;;;;;;;;3.20;99.80;;;;;;5097074;28;19912;-69
2023/12/01 05:02:59;;;;;;;;;;;3.20;99.80;;;;;;5087191;28;19919;-69
2023/12/01 05:05:29;;;;;;;;;;;3.20;99.80;;;;;;5098168;28;20030;-69
2023/12/01 05:07:58;;;;;;;;;;;3.20;99.80;;;;;;5094042;28;20742;-68
2023/12/01 05:10:25;;;;;;;;;;;3.20;99.80;;;;;;5092823;28;20006;-68
2023/12/01 05:12:54;;;;;;;;;;;3.20;99.80;;;;;;5094413;28;20376;-68
2023/12/01 05:15:21;;;;;;;;;;;3.20;99.70;;;;;;5075514;28;20375;-69
2023/12/01 05:17:48;;;;;;;;;;;3.20;99.70;;;;;;5093601;28;20034;-68
2023/12/01 05:20:17;;;;;;;;;;;3.20;99.70;;;;;;5099739;28;19916;-69
2023/12/01 05:22:44;;;;;;;;;;;3.20;99.80;;;;;;5078074;28;20623;-69
2023/12/01 05:25:15;;;;;;;;;;;3.20;99.70;;;;;;5105700;28;20209;-69
2023/12/01 05:28:00;;;;;;;;;;;3.10;99.70;;;;;;5101890;28;19912;-69
2023/12/01 05:30:26;;;;;;;;;;;3.20;99.80;;;;;;5098701;28;20401;-69
2023/12/01 05:32:53;;;;;;;;;;;3.20;99.80;;;;;;5104987;28;19978;-68
2023/12/01 05:35:19;;;;;;;;;;;3.20;99.70;;;;;;5105421;28;19915;-68
2023/12/01 05:37:48;;;;;;;;;;;3.20;99.70;;;;;;5105194;28;19908;-68
2023/12/01 05:40:17;;;;;;;;;;;3.20;99.70;;;;;;5091417;28;19912;-69
2023/12/01 05:42:43;;;;;;;;;;;3.10;99.70;;;;;;5102770;28;20335;-68
2023/12/01 05:45:11;;;;;;;;;;;3.10;99.60;;;;;;5096985;28;19912;-68
2023/12/01 05:47:42;;;;;;;;;;;3.20;99.70;;;;;;5104986;28;20327;-69
2023/12/01 05:50:14;;;;;;;;;;;3.10;99.60;;;;;;5105236;28;19934;-68
2023/12/01 05:52:41;;;;;;;;;;;3.20;99.70;;;;;;5096656;28;19916;-68
2023/12/01 05:55:14;;;;;;;;;;;3.10;99.60;;;;;;5105286;28;19918;-68
2023/12/01 05:57:40;;;;;;;;;;;3.10;99.70;;;;;;5091442;28;20010;-69
2023/12/01 06:00:12;;;;;;;;;;;3.10;99.70;;;;;;5096943;28;19911;-68
2023/12/01 06:03:06;;;;;;;;;;;3.20;99.70;;;;;;5104253;28;19912;-69
2023/12/01 06:05:32;;;;;;;;;;;3.10;99.70;;;;;;5098238;28;20665;-68
2023/12/01 06:07:58;;;;;;;;;;;3.10;99.70;;;;;;5093173;28;19912;-68
2023/12/01 06:10:24;;;;;;;;;;;3.10;99.70;;;;;;5092874;28;19916;-69
2023/12/01 06:12:50;;;;;;;;;;;3.10;99.70;;;;;;5100578;28;19919;-69
2023/12/01 06:15:19;;;;;;;;;;;3.10;99.70;;;;;;5090192;28;19957;-69
2023/12/01 06:17:46;;;;;;;;;;;3.10;99.70;;;;;;5104414;28;19907;-68
2023/12/01 06:20:18;;;;;;;;;;;3.10;99.70;;;;;;5104305;28;19919;-68
2023/12/01 06:22:51;;;;;;;;;;;3.10;99.70;;;;;;5103206;28;19950;-69
2023/12/01 06:25:18;;;;;;;;;;;3.10;99.70;;;;;;5096739;28;19983;-68
2023/12/01 06:27:45;;;;;;;;;;;3.10;99.70;;;;;;5100342;28;20012;-69
2023/12/01 06:30:11;;;;;;;;;;;3.10;99.60;;;;;;5099008;28;20259;-69
2023/12/01 06:32:46;;;;;;;;;;;3.10;99.70;;;;;;5104490;28;19916;-69
2023/12/01 06:35:13;;;;;;;;;;;3.10;99.60;;;;;;5108590;28;20315;-68
2023/12/01 06:37:39;;;;;;;;;;;3.10;99.60;;;;;;5108374;28;19997;-69
2023/12/01 06:40:11;;;;;;;;;;;3.10;99.60;;;;;;5100649;28;19912;-68
2023/12/01 06:42:41;;;;;;;;;;;3.10;99.60;;;;;;5090055;28;19915;-69
2023/12/01 06:45:13;;;;;;;;;;;3.10;99.60;;;;;;5107600;28;19915;-69
2023/12/01 06:47:40;;;;;;;;;;;3.10;99.60;;;;;;5094493;28;19912;-69
2023/12/01 06:50:07;;;;;;;;;;;3.00;99.60;;;;;;5108982;28;20387;-69
2023/12/01 06:52:33;;;;;;;;;;;3.00;99.60;;;;;;5100291;28;20381;-68
2023/12/01 06:54:58;;;;;;;;;;;3.00;99.60;;;;;;5107869;28;19965;-68
2023/12/01 06:57:24;;;;;;;;;;;3.10;99.60;;;;;;5083526;28;19934;-68
2023/12/01 06:59:49;;;;;;;;;;;3.10;99.60;;;;;;5098635;28;19916;-69
2023/12/01 07:02:17;;;;;;;;;;;3.00;99.50;;;;;;5100248;28;19923;-68
2023/12/01 07:04:44;;;;;;;;;;;3.10;99.60;;;;;;5107797;28;19919;-68
2023/12/01 07:07:09;;;;;;;;;;;3.00;99.60;;;;;;5108345;28;19955;-69
2023/12/01 07:09:35;;;;;;;;;;;3.00;99.60;;;;;;5107651;28;20488;-69
2023/12/01 07:12:04;;;;;;;;;;;3.00;99.50;;;;;;5107616;28;19919;-69
2023/12/01 07:14:29;;;;;;;;;;;3.00;99.50;;;;;;5108040;28;19912;-68
2023/12/01 07:16:55;;;;;;;;;;;3.00;99.50;;;;;;5080690;28;19923;-69
2023/12/01 07:19:20;;;;;;;;;;;3.00;99.50;;;;;;5081310;28;20659;-68
2023/12/01 07:21:46;;;;;;;;;;;3.00;99.50;;;;;;5107953;28;20003;-68
2023/12/01 07:24:12;;;;;;;;;;;3.00;99.50;;;;;;5107765;28;19911;-69
2023/12/01 07:26:37;;;;;;;;;;;3.00;99.50;;;;;;5107259;28;19911;-69
2023/12/01 07:29:04;;;;;;;;;;;3.00;99.50;;;;;;5084331;28;20567;-68
2023/12/01 07:31:37;;;;;;;;;;;3.00;99.50;;;;;;5101717;28;19914;-70
2023/12/01 07:34:03;;;;;;;;;;;3.10;99.50;;;;;;5107419;28;19922;-71
2023/12/01 07:36:29;;;;;;;;;;;3.00;99.50;;;;;;5078609;28;20344;-68
2023/12/01 07:38:54;;;;;;;;;;;3.00;99.50;;;;;;5096729;28;20028;-69
2023/12/01 07:41:21;;;;;;;;;;;3.00;99.50;;;;;;5105718;28;19951;-69
2023/12/01 07:43:46;;;;;;;;;;;3.00;99.50;;;;;;5089730;28;19912;-69
2023/12/01 07:46:12;;;;;;;;;;;3.00;99.50;;;;;;5097296;28;20364;-68
2023/12/01 07:48:37;;;;;;;;;;;3.00;99.50;;;;;;5079292;28;19911;-68
2023/12/01 07:51:04;;;;;;;;;;;3.00;99.50;;;;;;5090385;28;19919;-68
2023/12/01 07:53:30;;;;;;;;;;;3.00;99.50;;;;;;5098355;28;19964;-68
2023/12/01 07:55:55;;;;;;;;;;;3.00;99.50;;;;;;5078408;28;19933;-69
2023/12/01 07:58:21;;;;;;;;;;;3.00;99.50;;;;;;5095633;27;19912;-69
2023/12/01 08:00:47;;;;;;;;;;;3.00;99.50;;;;;;5088452;28;19919;-68
2023/12/01 08:03:12;;;;;;;;;;;3.00;99.40;;;;;;5079231;28;19912;-68
2023/12/01 08:05:39;;;;;;;;;;;3.00;99.40;;;;;;5073610;28;19920;-69
2023/12/01 08:08:04;;;;;;;;;;;3.00;99.40;;;;;;5076664;28;20015;-68
2023/12/01 08:10:30;;;;;;;;;;;3.00;99.30;;;;;;5102323;28;19994;-69
2023/12/01 08:12:56;;;;;;;;;;;3.00;99.40;;;;;;5086215;28;19916;-69
2023/12/01 08:15:22;;;;;;;;;;;3.00;99.40;;;;;;5100665;28;20006;-69
2023/12/01 08:17:47;;;;;;;;;;;3.00;99.40;;;;;;5105817;28;19918;-69
2023/12/01 08:20:13;;;;;;;;;;;3.00;99.40;;;;;;5068296;28;19962;-69
2023/12/01 08:22:39;;;;;;;;;;;3.00;99.40;;;;;;5086195;28;19912;-69
2023/12/01 08:25:05;;;;;;;;;;;3.00;99.40;;;;;;5083726;28;20308;-69
2023/12/01 08:27:31;;;;;;;;;;;3.00;99.40;;;;;;5085561;28;19916;-69
2023/12/01 08:29:56;;;;;;;;;;;3.00;99.40;;;;;;5085032;28;19912;-68
2023/12/01 08:32:22;;;;;;;;;;;3.00;99.40;;;;;;5109489;27;19962;-69
2023/12/01 08:34:47;;;;;;;;;;;3.00;99.40;;;;;;5103659;28;19912;-69
2023/12/01 08:37:13;;;;;;;;;;;3.00;99.50;;;;;;5082300;28;20258;-69
2023/12/01 08:39:38;;;;;;;;;;;3.00;99.50;;;;;;5099741;28;19940;-68
2023/12/01 08:42:04;;;;;;;;;;;3.00;99.40;;;;;;5098462;28;20031;-69
2023/12/01 08:44:30;;;;;;;;;;;3.00;99.40;;;;;;5085031;28;19912;-69
2023/12/01 08:46:56;;;;;;;;;;;3.00;99.50;;;;;;5084905;28;20371;-69
2023/12/01 08:49:21;;;;;;;;;;;3.00;99.40;;;;;;5100007;28;19984;-69
2023/12/01 08:51:47;;;;;;;;;;;3.00;99.50;;;;;;5088361;28;19919;-68
2023/12/01 08:54:12;;;;;;;;;;;3.00;99.40;;;;;;5073588;28;19920;-69
2023/12/01 08:56:38;;;;;;;;;;;3.00;99.50;;;;;;5080135;28;20284;-69
2023/12/01 08:59:03;;;;;;;;;;;3.00;99.50;;;;;;5095757;28;20490;-69
2023/12/01 09:01:29;;;;;;;;;;;3.00;99.50;;;;;;5084689;28;20030;-69
2023/12/01 09:03:54;;;;;;;;;;;3.00;99.40;;;;;;5086454;28;20002;-68
2023/12/01 09:06:20;;;;;;;;;;;3.00;99.40;;;;;;5096640;28;19942;-69
2023/12/01 09:08:47;;;;;;;;;;;3.00;99.40;;;;;;5095188;28;19914;-69
2023/12/01 09:11:13;;;;;;;;;;;3.00;99.40;;;;;;5093476;28;19919;-69
2023/12/01 09:13:39;;;;;;;;;;;3.00;99.60;;;;;;5066574;28;19916;-68
2023/12/01 09:16:05;;;;;;;;;;;3.00;99.40;;;;;;5104863;28;20000;-69
2023/12/01 09:18:31;;;;;;;;;;;3.00;99.40;;;;;;5086402;28;19912;-69
2023/12/01 09:20:56;;;;;;;;;;;3.00;99.40;;;;;;5085139;28;19977;-69
2023/12/01 09:23:22;;;;;;;;;;;3.00;99.40;;;;;;5084827;28;19963;-69
2023/12/01 09:25:48;;;;;;;;;;;3.00;99.40;;;;;;5092525;28;19912;-69
2023/12/01 09:28:14;;;;;;;;;;;3.00;99.40;;;;;;5088777;28;19920;-69
2023/12/01 09:30:39;;;;;;;;;;;3.00;99.40;;;;;;5086592;28;19935;-69
2023/12/01 09:33:06;;;;;;;;;;;3.00;99.40;;;;;;5083901;28;19922;-69
2023/12/01 09:35:31;;;;;;;;;;;3.00;99.40;;;;;;5065970;28;19912;-69
2023/12/01 09:37:57;;;;;;;;;;;3.00;99.40;;;;;;5100857;28;19912;-69
2023/12/01 09:40:22;;;;;;;;;;;3.00;99.40;;;;;;5096497;28;20622;-69
2023/12/01 09:42:48;;;;;;;;;;;3.00;99.40;;;;;;5084360;28;19912;-69
2023/12/01 09:45:18;;;;;;;;;;;3.00;99.40;;;;;;5084385;28;20294;-69
2023/12/01 09:47:49;;;;;;;;;;;3.00;99.30;;;;;;5101870;28;20380;-68
2023/12/01 09:50:15;;;;;;;;;;;3.00;99.30;;;;;;5099379;28;19923;-69
2023/12/01 09:52:42;;;;;;;;;;;3.00;99.30;;;;;;5082717;28;19916;-69
2023/12/01 09:55:07;;;;;;;;;;;3.00;99.30;;;;;;5103894;28;19911;-69
2023/12/01 09:57:33;;;;;;;;;;;3.10;99.30;;;;;;5091348;28;20678;-69
2023/12/01 09:59:59;;;;;;;;;;;3.00;99.30;;;;;;5094543;28;19912;-69
2023/12/01 10:02:24;;;;;;;;;;;3.10;99.30;;;;;;5089408;28;19915;-69
2023/12/01 10:04:58;;;;;;;;;;;3.10;99.30;;;;;;5093296;28;20369;-69
2023/12/01 10:07:24;;;;;;;;;;;3.00;99.20;;;;;;5084088;28;20395;-69
2023/12/01 10:09:49;;;;;;;;;;;3.00;99.20;;;;;;5084494;28;19912;-69
2023/12/01 10:12:15;;;;;;;;;;;3.00;99.30;;;;;;5088052;28;20013;-69
2023/12/01 10:14:43;;;;;;;;;;;3.00;99.30;;;;;;5095785;28;20010;-69
2023/12/01 10:17:12;;;;;;;;;;;3.00;99.30;;;;;;5069579;28;19912;-69
2023/12/01 10:19:47;;;;;;;;;;;3.00;99.30;;;;;;5087719;28;19913;-69
2023/12/01 10:22:15;;;;;;;;;;;3.00;99.30;;;;;;5108555;28;19912;-69
2023/12/01 10:24:51;;;;;;;;;;;3.00;99.30;;;;;;5090539;28;19919;-69
2023/12/01 10:27:18;;;;;;;;;;;3.00;99.30;;;;;;5100398;28;19919;-69
2023/12/01 10:29:44;;;;;;;;;;;3.00;99.30;;;;;;5088046;28;20652;-69
2023/12/01 10:32:11;;;;;;;;;;;3.00;99.30;;;;;;5089561;28;19912;-69
2023/12/01 10:34:37;;;;;;;;;;;3.10;99.30;;;;;;5099560;28;19919;-69
2023/12/01 10:37:03;;;;;;;;;;;3.10;99.30;;;;;;5082526;28;19911;-69
2023/12/01 10:39:29;;;;;;;;;;;3.10;99.20;;;;;;5087733;28;19942;-69
2023/12/01 10:41:55;;;;;;;;;;;3.10;99.20;;;;;;5106552;28;19950;-69
2023/12/01 10:44:22;;;;;;;;;;;3.10;99.50;;;;;;5099208;28;19922;-69
2023/12/01 10:46:48;;;;;;;;;;;3.10;99.20;;;;;;5102290;28;19912;-69
2023/12/01 10:49:15;;;;;;;;;;;3.10;99.20;;;;;;5100956;28;19912;-69
2023/12/01 10:51:43;;;;;;;;;;;3.10;99.20;;;;;;5099136;28;19912;-69
2023/12/01 10:54:09;;;;;;;;;;;3.10;99.20;;;;;;5107834;28;19915;-69
2023/12/01 10:56:37;;;;;;;;;;;3.10;99.30;;;;;;5072556;28;20446;-69
2023/12/01 10:59:04;;;;;;;;;;;3.10;99.30;;;;;;5088149;28;19973;-69
2023/12/01 11:01:30;;;;;;;;;;;3.10;99.30;;;;;;5094562;28;19919;-69
2023/12/01 11:03:57;;;;;;;;;;;3.10;99.30;;;;;;5069495;28;19912;-69
2023/12/01 11:06:36;;;;;;;;;;;3.10;99.30;;;;;;5068483;28;19923;-69
2023/12/01 11:09:11;;;;;;;;;;;3.10;99.30;;;;;;5088460;28;19939;-69
2023/12/01 11:11:36;;;;;;;;;;;3.10;99.30;;;;;;5107442;28;19919;-69
2023/12/01 11:14:18;;;;;;;;;;;3.10;99.30;;;;;;5106610;28;19964;-69
2023/12/01 11:16:44;;;;;;;;;;;3.10;99.30;;;;;;5106724;28;20546;-69
2023/12/01 11:19:11;;;;;;;;;;;3.10;99.40;;;;;;5102723;28;19920;-69
2023/12/01 11:21:40;;;;;;;;;;;3.00;99.40;;;;;;5102330;28;19918;-69
2023/12/01 11:24:25;;;;;;;;;;;3.10;99.40;;;;;;5090977;28;19911;-69
2023/12/01 11:26:54;;;;;;;;;;;3.10;99.40;;;;;;5096412;28;19921;-69
2023/12/01 11:29:29;;;;;;;;;;;3.10;99.40;;;;;;5082546;28;19999;-69
2023/12/01 11:31:57;;;;;;;;;;;3.10;99.40;;;;;;5083406;28;19940;-68
2023/12/01 11:34:25;;;;;;;;;;;3.10;99.40;;;;;;5067164;28;19916;-69
2023/12/01 11:36:52;;;;;;;;;;;3.10;99.40;;;;;;5085477;28;19973;-69
2023/12/01 11:41:54;;;;;;;;;;;3.10;99.40;;;;;;5097233;28;19955;-69
2023/12/01 11:44:24;;;;;;;;;;;3.10;99.40;;;;;;5100554;28;19912;-69
2023/12/01 11:46:55;;;;;;;;;;;3.10;99.40;;;;;;5093803;28;19927;-69
2023/12/01 11:49:31;;;;;;;;;;;3.00;99.50;;;;;;5086093;28;19939;-69
2023/12/01 11:52:01;;;;;;;;;;;3.10;99.50;;;;;;5075682;28;19912;-69
2023/12/01 11:54:26;;;;;;;;;;;3.00;99.50;;;;;;5074194;28;19959;-69
2023/12/01 11:56:53;;;;;;;;;;;3.00;99.50;;;;;;5088835;28;19974;-69
2023/12/01 11:59:19;;;;;;;;;;;3.10;99.40;;;;;;5098658;28;19919;-69
2023/12/01 12:01:45;;;;;;;;;;;3.10;99.30;;;;;;5095045;28;19908;-69
2023/12/01 12:04:13;;;;;;;;;;;3.10;99.20;;;;;;5106317;28;20015;-69
2023/12/01 12:06:39;;;;;;;;;;;3.10;99.20;;;;;;5088817;28;19976;-69
2023/12/01 12:09:08;;;;;;;;;;;3.10;99.20;;;;;;5075762;28;19919;-69
2023/12/01 12:11:35;;;;;;;;;;;3.10;99.20;;;;;;5094288;28;20030;-69
2023/12/01 12:14:01;;;;;;;;;;;3.10;99.20;;;;;;5099203;28;19990;-69
2023/12/01 12:16:27;;;;;;;;;;;3.10;99.20;;;;;;5088004;28;20360;-69
2023/12/01 12:18:56;;;;;;;;;;;3.10;99.20;;;;;;5068608;28;19927;-69
2023/12/01 12:21:23;;;;;;;;;;;3.10;99.20;;;;;;5100191;28;19986;-69
2023/12/01 12:23:49;;;;;;;;;;;3.10;99.10;;;;;;5089059;28;19913;-69
2023/12/01 12:26:18;;;;;;;;;;;3.10;99.00;;;;;;5100606;28;19919;-69
2023/12/01 12:28:49;;;;;;;;;;;3.10;99.00;;;;;;5079818;28;19999;-69
2023/12/01 12:31:15;;;;;;;;;;;3.10;99.00;;;;;;5098853;28;20316;-69
2023/12/01 12:33:40;;;;;;;;;;;3.10;99.00;;;;;;5078431;28;20014;-69
2023/12/01 12:36:06;;;;;;;;;;;3.10;99.00;;;;;;5088530;28;19920;-69
2023/12/01 12:38:33;;;;;;;;;;;3.10;98.90;;;;;;5101323;28;19911;-69
2023/12/01 12:40:59;;;;;;;;;;;3.10;98.90;;;;;;5096678;28;19918;-69
2023/12/01 12:43:24;;;;;;;;;;;3.10;98.90;;;;;;5105478;28;19908;-69
2023/12/01 12:45:50;;;;;;;;;;;3.10;98.90;;;;;;5078045;28;19912;-69
2023/12/01 12:48:16;;;;;;;;;;;3.10;98.90;;;;;;5092039;28;19919;-69
2023/12/01 12:50:50;;;;;;;;;;;3.20;98.80;;;;;;5090842;28;19947;-69
2023/12/01 12:53:16;;;;;;;;;;;3.10;98.80;;;;;;5091975;28;19919;-69
2023/12/01 12:55:41;;;;;;;;;;;3.10;98.70;;;;;;5091473;28;20035;-69
2023/12/01 12:58:07;;;;;;;;;;;3.10;98.70;;;;;;5084952;28;20608;-68
2023/12/01 13:00:32;;;;;;;;;;;3.10;98.70;;;;;;5082695;28;19920;-69
2023/12/01 13:02:58;;;;;;;;;;;3.10;98.70;;;;;;5095518;28;19911;-69
2023/12/01 13:05:24;;;;;;;;;;;3.20;98.70;;;;;;5104715;28;20003;-69
2023/12/01 13:07:49;;;;;;;;;;;3.10;98.60;;;;;;5091201;28;19915;-69
2023/12/01 13:10:15;;;;;;;;;;;3.10;98.60;;;;;;5091918;28;19916;-69
2023/12/01 13:12:40;;;;;;;;;;;3.10;98.70;;;;;;5084369;28;20304;-69
2023/12/01 13:15:06;;;;;;;;;;;3.10;98.70;;;;;;5083990;28;19912;-69
2023/12/01 13:17:32;;;;;;;;;;;3.10;98.70;;;;;;5076775;28;19913;-68
2023/12/01 13:19:57;;;;;;;;;;;3.10;98.60;;;;;;5073248;28;19916;-69
2023/12/01 13:22:23;;;;;;;;;;;3.10;98.70;;;;;;5084515;28;20598;-68
2023/12/01 13:24:49;;;;;;;;;;;3.10;98.70;;;;;;5099784;27;19930;-69
2023/12/01 13:27:15;;;;;;;;;;;3.10;98.70;;;;;;5079796;28;19923;-69
2023/12/01 13:29:40;;;;;;;;;;;3.10;98.70;;;;;;5082507;28;19912;-71
2023/12/01 13:32:06;;;;;;;;;;;3.10;98.70;;;;;;5101152;28;19912;-71
2023/12/01 13:34:32;;;;;;;;;;;3.10;98.70;;;;;;5066001;28;19950;-69
2023/12/01 13:36:58;;;;;;;;;;;3.10;98.70;;;;;;5092910;28;19912;-69
2023/12/01 13:39:24;;;;;;;;;;;3.10;98.70;;;;;;5081000;28;19917;-69
2023/12/01 13:41:49;;;;;;;;;;;3.10;98.60;;;;;;5073779;28;20397;-69
2023/12/01 13:44:15;;;;;;;;;;;3.10;98.60;;;;;;5096866;28;19923;-69
2023/12/01 13:46:41;;;;;;;;;;;3.10;98.60;;;;;;5072729;28;19929;-69
2023/12/01 13:49:06;;;;;;;;;;;3.10;98.60;;;;;;5094888;28;20695;-70
2023/12/01 13:51:32;;;;;;;;;;;3.10;98.90;;;;;;5099112;28;19912;-71
2023/12/01 13:53:58;;;;;;;;;;;3.10;98.60;;;;;;5105675;28;19922;-71
2023/12/01 13:56:23;;;;;;;;;;;3.10;98.60;;;;;;5101742;28;19916;-71
2023/12/01 13:58:48;;;;;;;;;;;3.10;98.60;;;;;;5102844;28;20020;-71
2023/12/01 14:01:15;;;;;;;;;;;3.10;98.60;;;;;;5085785;28;19970;-69
2023/12/01 14:03:40;;;;;;;;;;;3.10;98.60;;;;;;5080623;28;19916;-69
2023/12/01 14:06:06;;;;;;;;;;;3.10;98.60;;;;;;5104176;28;19920;-69
2023/12/01 14:08:32;;;;;;;;;;;3.00;98.60;;;;;;5104824;28;19991;-69
2023/12/01 14:10:57;;;;;;;;;;;3.10;98.60;;;;;;5104133;28;19912;-69
2023/12/01 14:13:23;;;;;;;;;;;3.00;98.60;;;;;;5092582;28;20644;-69
2023/12/01 14:15:48;;;;;;;;;;;3.10;98.60;;;;;;5100912;28;19947;-69
2023/12/01 14:18:14;;;;;;;;;;;3.00;98.50;;;;;;5088916;28;19908;-68
2023/12/01 14:20:41;;;;;;;;;;;3.00;98.50;;;;;;5086098;28;19908;-69
2023/12/01 14:23:06;;;;;;;;;;;3.00;98.50;;;;;;5087967;28;20753;-68
2023/12/01 14:25:31;;;;;;;;;;;3.00;98.50;;;;;;5104146;28;19946;-69
2023/12/01 14:27:57;;;;;;;;;;;3.00;98.40;;;;;;5104261;28;19976;-69
2023/12/01 14:30:25;;;;;;;;;;;3.10;98.50;;;;;;5093179;28;19916;-69